Time;durP1;ratioP1;P1;durP2;ratioP2;P2;SDS_P1;SDS_P2;PMS_P1;PMS_P2;Temp;Humidity;BMP_temperature;BMP_pressure;BME280_temperature;BME280_humidity;BME280_pressure;Samples;Min_cycle;Max_cycle;Signal;HPM_P1;HPM_P2
2023/01/12 00:01:24;;;;;;;9.27;4.47;;;;;;;3.02;100.00;99063.38;5085503;28;20316;-64
2023/01/12 00:04:12;;;;;;;7.88;4.28;;;;;;;2.98;100.00;99072.16;5071269;28;20033;-64
2023/01/12 00:06:57;;;;;;;6.40;3.85;;;;;;;2.91;100.00;99063.75;5071572;28;20045;-64
2023/01/12 00:09:42;;;;;;;8.07;3.60;;;;;;;2.93;100.00;99071.47;5070145;28;20062;-65
2023/01/12 00:12:27;;;;;;;6.40;3.35;;;;;;;3.01;100.00;99061.72;5071559;28;20395;-65
2023/01/12 00:15:11;;;;;;;5.38;2.80;;;;;;;2.92;100.00;99069.78;5073148;28;20044;-64
2023/01/12 00:17:56;;;;;;;5.97;3.42;;;;;;;2.91;100.00;99070.66;5068296;28;20127;-65
2023/01/12 00:20:46;;;;;;;5.95;3.55;;;;;;;2.82;100.00;99071.81;5079055;28;20038;-65
2023/01/12 00:23:31;;;;;;;7.85;4.15;;;;;;;2.90;100.00;99074.16;5068580;28;20054;-64
2023/01/12 00:26:16;;;;;;;8.18;3.85;;;;;;;2.82;100.00;99066.63;5075438;28;20094;-64
2023/01/12 00:29:00;;;;;;;7.60;4.20;;;;;;;2.73;100.00;99074.66;5077934;28;20372;-64
2023/01/12 00:31:46;;;;;;;5.75;3.78;;;;;;;2.70;100.00;99071.31;5055857;28;20131;-65
2023/01/12 00:34:30;;;;;;;7.95;3.78;;;;;;;2.67;100.00;99071.41;5080739;28;20052;-65
2023/01/12 00:37:15;;;;;;;6.90;3.40;;;;;;;2.59;100.00;99073.38;5069280;28;20043;-65
2023/01/12 00:39:59;;;;;;;7.28;3.75;;;;;;;2.56;100.00;99076.88;5085113;28;20130;-64
2023/01/12 00:45:50;;;;;;;5.82;3.53;;;;;;;2.68;100.00;99085.16;5080170;28;20048;-64
2023/01/12 00:48:35;;;;;;;5.95;3.72;;;;;;;2.77;100.00;99086.63;5070925;28;20047;-64
2023/01/12 00:51:19;;;;;;;7.78;4.22;;;;;;;2.76;100.00;99088.34;5083560;28;20502;-64
2023/01/12 00:54:07;;;;;;;6.03;3.97;;;;;;;2.67;100.00;99093.81;5084792;28;20052;-64
2023/01/12 00:56:51;;;;;;;5.88;4.20;;;;;;;2.74;100.00;99094.50;5070826;28;20041;-64
2023/01/12 00:59:36;;;;;;;8.23;4.30;;;;;;;2.55;100.00;99093.31;5088866;28;20463;-64
2023/01/12 01:02:20;;;;;;;7.25;4.07;;;;;;;2.63;100.00;99092.25;5090546;28;20052;-64
2023/01/12 01:05:05;;;;;;;8.00;4.13;;;;;;;2.59;100.00;99097.47;5082898;28;20031;-64
2023/01/12 01:07:50;;;;;;;6.55;4.05;;;;;;;2.51;100.00;99094.31;5074333;28;20098;-64
2023/01/12 01:10:35;;;;;;;7.72;4.72;;;;;;;2.61;100.00;99100.06;5086930;28;20418;-64
2023/01/12 01:13:19;;;;;;;7.68;4.57;;;;;;;2.70;100.00;99104.09;5094385;28;20054;-64
2023/01/12 01:16:04;;;;;;;6.05;4.32;;;;;;;2.64;100.00;99106.88;5090243;28;20076;-64
2023/01/12 01:18:48;;;;;;;8.88;4.55;;;;;;;2.75;100.00;99102.22;5074701;28;20127;-64
2023/01/12 01:21:34;;;;;;;8.25;4.70;;;;;;;2.79;100.00;99105.56;5103033;28;20043;-64
2023/01/12 01:24:19;;;;;;;6.90;5.07;;;;;;;2.82;100.00;99103.69;5101893;28;20071;-64
2023/01/12 01:27:04;;;;;;;10.27;4.60;;;;;;;2.83;100.00;99097.63;5095619;28;20048;-64
2023/01/12 01:29:48;;;;;;;7.53;4.68;;;;;;;2.90;100.00;99090.53;5098893;28;20070;-64
2023/01/12 01:32:33;;;;;;;7.60;4.97;;;;;;;2.95;100.00;99103.31;5103632;28;20048;-64
2023/01/12 01:35:18;;;;;;;8.30;4.82;;;;;;;3.02;100.00;99096.22;5096074;28;20056;-64
2023/01/12 01:38:03;;;;;;;8.98;5.10;;;;;;;3.02;100.00;99099.63;5101703;28;20048;-63
2023/01/12 01:40:48;;;;;;;9.45;5.13;;;;;;;2.96;100.00;99089.47;5098750;28;20059;-64
2023/01/12 01:43:57;;;;;;;8.50;4.50;;;;;;;2.99;100.00;99094.56;5078263;28;20602;-64
2023/01/12 01:46:47;;;;;;;8.07;4.78;;;;;;;2.93;100.00;99103.38;5106919;28;20047;-63
2023/01/12 01:49:44;;;;;;;7.47;4.97;;;;;;;2.94;100.00;99101.63;5092014;28;20040;-64
2023/01/12 01:52:36;;;;;;;8.07;4.72;;;;;;;2.94;100.00;99099.03;5089730;28;20519;-63
2023/01/12 01:55:21;;;;;;;;;;;;;;;2.94;100.00;99096.44;5090188;28;20050;-64
2023/01/12 01:58:20;;;;;;;9.32;5.22;;;;;;;2.94;100.00;99101.63;5089768;28;19926;-63
2023/01/12 02:01:06;;;;;;;8.55;5.32;;;;;;;3.01;100.00;99097.09;5102991;28;20390;-64
2023/01/12 02:03:53;;;;;;;7.07;5.22;;;;;;;3.02;100.00;99099.63;5097299;28;20068;-63
2023/01/12 02:06:38;;;;;;;8.98;5.20;;;;;;;2.98;100.00;99098.06;5089907;28;20066;-64
2023/01/12 02:09:26;;;;;;;8.55;5.50;;;;;;;3.22;100.00;99103.31;5082749;28;20045;-63
2023/01/12 02:18:43;;;;;;;7.07;4.32;;;;;;;3.59;100.00;99097.81;5106667;28;20100;-64
2023/01/12 02:21:31;;;;;;;5.68;3.83;;;;;;;3.65;100.00;99108.81;5102387;28;20502;-64
2023/01/12 02:24:41;;;;;;;8.23;4.30;;;;;;;3.74;100.00;99102.44;5096226;28;20046;-64
2023/01/12 02:27:41;;;;;;;6.60;3.75;;;;;;;3.82;100.00;99099.59;5093326;28;20114;-64
2023/01/12 02:30:56;;;;;;;5.97;3.75;;;;;;;3.87;100.00;99107.22;5091985;28;20745;-63
2023/01/12 02:33:55;;;;;;;6.38;4.38;;;;;;;3.91;100.00;99109.66;5090139;28;20044;-65
2023/01/12 02:37:03;;;;;;;8.68;5.55;;;;;;;4.03;100.00;99100.56;5102497;28;20048;-64
2023/01/12 02:39:58;;;;;;;9.00;4.10;;;;;;;4.00;100.00;99102.44;5074644;28;20052;-65
2023/01/12 02:43:05;;;;;;;8.02;5.10;;;;;;;3.88;100.00;99109.75;5089311;28;20047;-64
2023/01/12 02:45:56;;;;;;;5.68;4.55;;;;;;;3.79;100.00;99104.88;5099196;28;20127;-64
2023/01/12 02:49:03;;;;;;;7.93;5.40;;;;;;;3.82;100.00;99109.94;5103843;28;20042;-64
2023/01/12 02:51:47;;;;;;;9.40;5.43;;;;;;;3.85;100.00;99106.41;5105275;28;20313;-64
2023/01/12 02:54:35;;;;;;;7.85;5.20;;;;;;;3.91;100.00;99114.84;5093591;28;20536;-64
2023/01/12 02:57:23;;;;;;;7.15;4.68;;;;;;;3.89;100.00;99118.34;5085453;28;20040;-64
2023/01/12 03:00:09;;;;;;;6.57;5.30;;;;;;;3.94;100.00;99114.72;5077378;28;20387;-64
2023/01/12 03:02:53;;;;;;;8.63;6.30;;;;;;;3.76;100.00;99121.41;5096704;28;20501;-64
2023/01/12 03:05:44;;;;;;;10.00;5.47;;;;;;;3.70;100.00;99134.56;5105915;28;20039;-64
2023/01/12 03:08:31;;;;;;;8.85;5.20;;;;;;;3.79;100.00;99133.38;5092556;28;20032;-64
2023/01/12 03:11:18;;;;;;;10.43;6.03;;;;;;;3.93;100.00;99128.56;5090797;28;20047;-64
2023/01/12 03:14:05;;;;;;;9.45;6.47;;;;;;;3.96;100.00;99126.78;5084372;28;20773;-64
2023/01/12 03:16:53;;;;;;;9.27;6.50;;;;;;;3.89;100.00;99128.72;5092141;28;20475;-64
2023/01/12 03:19:39;;;;;;;10.15;6.53;;;;;;;3.67;100.00;99130.31;5092430;28;20059;-64
2023/01/12 03:22:23;;;;;;;10.43;6.18;;;;;;;3.64;100.00;99148.56;5092758;28;20067;-64
2023/01/12 03:25:12;;;;;;;10.82;5.82;;;;;;;3.74;100.00;99135.31;5107585;28;20388;-64
2023/01/12 03:27:59;;;;;;;7.93;5.72;;;;;;;4.03;100.00;99130.84;5081268;28;20364;-64
2023/01/12 03:30:51;;;;;;;9.18;6.28;;;;;;;4.19;100.00;99131.97;5101027;28;20064;-64
2023/01/12 03:33:38;;;;;;;9.93;5.82;;;;;;;4.28;100.00;99128.22;5083930;28;20039;-64
2023/01/12 03:36:44;;;;;;;9.77;6.30;;;;;;;4.41;100.00;99128.59;5092578;28;20139;-64
2023/01/12 03:39:59;;;;;;;10.48;6.20;;;;;;;4.36;100.00;99127.09;5092058;28;20044;-65
2023/01/12 03:43:18;;;;;;;11.65;7.10;;;;;;;4.32;100.00;99128.94;5094980;28;20042;-65
2023/01/12 03:46:13;;;;;;;10.13;5.82;;;;;;;4.37;100.00;99124.44;5091863;28;20044;-65
2023/01/12 03:49:06;;;;;;;8.50;6.35;;;;;;;4.52;100.00;99116.97;5091150;28;20044;-64
2023/01/12 03:51:53;;;;;;;11.38;6.75;;;;;;;4.63;100.00;99121.75;5089380;28;20127;-65
2023/01/12 03:54:40;;;;;;;7.85;5.38;;;;;;;4.65;100.00;99115.59;5099527;28;20084;-64
2023/01/12 03:57:26;;;;;;;7.53;4.90;;;;;;;4.67;100.00;99118.97;5091343;28;20047;-64
2023/01/12 04:00:13;;;;;;;10.48;6.63;;;;;;;4.16;100.00;99113.09;5090562;28;20047;-65
2023/01/12 04:03:14;;;;;;;9.80;6.07;;;;;;;3.92;100.00;99111.31;5093732;28;20040;-65
2023/01/12 04:05:58;;;;;;;10.07;6.55;;;;;;;3.93;100.00;99115.59;5105411;28;20047;-65
2023/01/12 04:08:43;;;;;;;9.02;6.45;;;;;;;3.92;100.00;99123.44;5085198;28;20373;-65
2023/01/12 04:14:31;;;;;;;9.23;6.13;;;;;;;3.87;100.00;99122.78;5093648;28;20055;-64
2023/01/12 04:17:16;;;;;;;8.88;6.65;;;;;;;3.87;100.00;99121.00;5092839;28;20044;-64
2023/01/12 04:20:01;;;;;;;10.27;6.10;;;;;;;3.97;100.00;99124.13;5099129;28;20517;-64
2023/01/12 04:22:46;;;;;;;6.88;4.10;;;;;;;4.06;100.00;99128.97;5088800;28;20068;-65
2023/01/12 04:25:31;;;;;;;9.07;6.75;;;;;;;4.21;100.00;99129.31;5085853;28;20031;-64
2023/01/12 04:28:16;;;;;;;9.82;5.93;;;;;;;4.40;100.00;99129.50;5102594;28;20032;-64
2023/01/12 04:31:01;;;;;;;7.65;5.50;;;;;;;4.58;100.00;99140.09;5104149;28;20047;-62
2023/01/12 04:33:46;;;;;;;8.55;5.85;;;;;;;4.65;100.00;99153.69;5101866;28;20044;-62
2023/01/12 04:36:30;;;;;;;10.32;6.15;;;;;;;4.69;100.00;99144.88;5081548;28;20028;-62
2023/01/12 04:39:15;;;;;;;10.15;6.60;;;;;;;4.66;100.00;99153.63;5097672;28;20146;-62
2023/01/12 04:42:00;;;;;;;9.90;6.85;;;;;;;4.56;100.00;99142.75;5093043;28;20119;-63
2023/01/12 04:44:45;;;;;;;10.10;6.35;;;;;;;4.62;100.00;99151.22;5088716;28;20071;-63
2023/01/12 04:47:33;;;;;;;11.40;7.28;;;;;;;4.39;100.00;99148.56;5092719;28;20042;-63
2023/01/12 04:50:17;;;;;;;10.05;6.32;;;;;;;4.38;100.00;99157.25;5092466;28;20044;-63
2023/01/12 04:53:04;;;;;;;10.18;6.90;;;;;;;4.35;100.00;99157.38;5075227;28;20447;-64
2023/01/12 04:55:49;;;;;;;12.77;7.88;;;;;;;4.16;100.00;99162.38;5102795;28;20479;-64
2023/01/12 04:58:34;;;;;;;11.07;6.97;;;;;;;3.90;100.00;99170.16;5090842;28;20123;-63
2023/01/12 05:01:19;;;;;;;11.55;7.03;;;;;;;3.61;100.00;99173.75;5084343;28;20036;-63
2023/01/12 05:04:04;;;;;;;13.25;6.68;;;;;;;3.44;100.00;99163.03;5090461;28;20450;-64
2023/01/12 05:06:50;;;;;;;11.73;6.57;;;;;;;3.44;100.00;99172.56;5101866;28;20036;-65
2023/01/12 05:12:38;;;;;;;11.75;6.70;;;;;;;3.45;100.00;99175.09;5109867;28;20051;-63
2023/01/12 05:15:22;;;;;;;15.13;9.82;;;;;;;3.40;100.00;99166.63;5099821;28;20047;-64
2023/01/12 05:18:07;;;;;;;15.07;8.77;;;;;;;3.23;100.00;99169.78;5090355;28;20040;-64
2023/01/12 05:20:51;;;;;;;18.70;10.05;;;;;;;3.29;100.00;99173.91;5095999;28;20051;-64
2023/01/12 05:23:36;;;;;;;16.60;10.13;;;;;;;3.32;100.00;99179.84;5084585;28;20043;-63
2023/01/12 05:26:21;;;;;;;14.55;10.07;;;;;;;3.34;100.00;99182.38;5103923;28;20036;-63
2023/01/12 05:29:07;;;;;;;17.73;10.35;;;;;;;3.36;100.00;99177.16;5082639;28;20088;-65
2023/01/12 05:31:51;;;;;;;15.07;9.88;;;;;;;3.37;100.00;99191.78;5092792;28;20433;-65
2023/01/12 05:34:37;;;;;;;20.77;10.95;;;;;;;3.42;100.00;99188.16;5090041;28;20044;-66
2023/01/12 05:37:22;;;;;;;13.80;9.68;;;;;;;3.40;100.00;99192.53;5093585;28;20072;-65
2023/01/12 05:40:07;;;;;;;16.05;9.15;;;;;;;3.17;100.00;99196.69;5097413;28;20076;-66
2023/01/12 05:45:55;;;;;;;18.20;10.52;;;;;;;3.22;100.00;99198.28;5101884;28;20076;-65
2023/01/12 05:48:40;;;;;;;17.10;10.15;;;;;;;3.30;100.00;99199.75;5095309;28;20031;-63
2023/01/12 05:51:29;;;;;;;17.77;11.30;;;;;;;3.32;100.00;99208.31;5090221;28;20093;-65
2023/01/12 05:54:14;;;;;;;20.88;12.63;;;;;;;3.24;100.00;99214.63;5101173;28;20419;-66
2023/01/12 05:56:58;;;;;;;18.35;11.77;;;;;;;3.24;100.00;99217.22;5099007;28;20402;-65
2023/01/12 05:59:43;;;;;;;21.73;12.75;;;;;;;3.12;100.00;99221.06;5081764;28;20463;-64
2023/01/12 06:02:28;;;;;;;22.30;13.90;;;;;;;3.14;100.00;99224.41;5094267;28;20479;-65
2023/01/12 06:05:12;;;;;;;21.40;13.38;;;;;;;3.16;100.00;99220.06;5089347;28;20055;-65
2023/01/12 06:07:58;;;;;;;22.48;13.48;;;;;;;3.75;100.00;99218.19;5089788;28;20562;-65
2023/01/12 06:10:42;;;;;;;22.58;12.68;;;;;;;3.45;100.00;99216.56;5089426;28;20399;-64
2023/01/12 06:16:30;;;;;;;18.05;12.30;;;;;;;3.21;100.00;99225.94;5101907;28;20036;-64
2023/01/12 06:19:15;;;;;;;19.73;12.55;;;;;;;3.22;100.00;99224.19;5106004;28;20521;-64
2023/01/12 06:22:00;;;;;;;19.67;12.73;;;;;;;3.19;100.00;99231.16;5074080;28;20402;-64
2023/01/12 06:24:47;;;;;;;23.33;13.85;;;;;;;3.18;100.00;99238.97;5093534;28;20627;-65
2023/01/12 06:27:34;;;;;;;20.83;14.15;;;;;;;3.24;100.00;99235.34;5092739;28;20038;-64
2023/01/12 06:30:19;;;;;;;22.67;13.35;;;;;;;3.26;100.00;99239.59;5093371;28;20040;-65
2023/01/12 06:33:03;;;;;;;20.13;12.13;;;;;;;3.33;100.00;99243.69;5088512;28;20032;-65
2023/01/12 06:35:48;;;;;;;18.10;12.23;;;;;;;3.40;100.00;99251.25;5111586;28;20053;-65
2023/01/12 06:38:35;;;;;;;28.45;17.27;;;;;;;3.45;100.00;99252.81;5097190;28;20048;-64
2023/01/12 06:44:23;;;;;;;24.40;14.15;;;;;;;3.48;100.00;99261.41;5103835;28;20487;-64
2023/01/12 06:47:08;;;;;;;32.40;19.52;;;;;;;3.51;100.00;99256.13;5093433;28;20052;-65
2023/01/12 06:49:53;;;;;;;20.55;13.73;;;;;;;3.38;100.00;99258.25;5094943;28;20115;-65
2023/01/12 06:52:37;;;;;;;19.25;12.88;;;;;;;3.37;100.00;99261.72;5093217;28;20131;-64
2023/01/12 06:55:22;;;;;;;19.15;12.63;;;;;;;3.41;100.00;99271.94;5076855;28;20376;-64
2023/01/12 06:58:07;;;;;;;19.27;13.05;;;;;;;3.43;100.00;99275.31;5092801;28;20109;-64
2023/01/12 07:00:52;;;;;;;21.85;13.27;;;;;;;3.45;100.00;99259.75;5092608;28;20047;-64
2023/01/12 07:03:36;;;;;;;20.55;12.40;;;;;;;3.47;100.00;99265.72;5092916;28;20416;-65
2023/01/12 07:06:22;;;;;;;19.80;13.45;;;;;;;3.44;100.00;99266.66;5106537;28;20039;-65
2023/01/12 07:09:07;;;;;;;18.45;12.85;;;;;;;3.55;100.00;99271.53;5085368;28;20036;-64
2023/01/12 07:11:52;;;;;;;16.58;10.43;;;;;;;3.63;100.00;99270.41;5092023;28;20044;-66
2023/01/12 07:14:36;;;;;;;13.55;9.95;;;;;;;3.80;100.00;99269.88;5061466;28;20039;-64
2023/01/12 07:17:21;;;;;;;12.27;7.60;;;;;;;3.93;100.00;99270.34;5093225;28;20040;-65
2023/01/12 07:20:08;;;;;;;12.13;6.20;;;;;;;4.16;100.00;99273.91;5112620;28;20111;-65
2023/01/12 07:22:54;;;;;;;9.23;5.57;;;;;;;4.35;100.00;99268.94;5092549;28;20044;-65
2023/01/12 07:25:39;;;;;;;8.68;4.80;;;;;;;4.48;100.00;99264.16;5095658;28;20040;-65
2023/01/12 07:28:24;;;;;;;7.43;5.03;;;;;;;4.61;100.00;99267.16;5092677;28;20055;-65
2023/01/12 07:31:12;;;;;;;9.98;4.88;;;;;;;4.71;100.00;99272.88;5080711;28;20174;-63
2023/01/12 07:33:56;;;;;;;8.07;4.60;;;;;;;4.78;100.00;99263.94;5076678;28;20151;-64
2023/01/12 07:36:41;;;;;;;5.63;3.97;;;;;;;4.79;100.00;99270.84;5101624;28;20531;-63
2023/01/12 07:39:26;;;;;;;6.35;4.10;;;;;;;4.78;100.00;99271.72;5102007;28;20067;-64
2023/01/12 07:42:23;;;;;;;7.18;3.50;;;;;;;4.78;100.00;99271.72;5086522;28;20054;-63
2023/01/12 07:45:10;;;;;;;6.00;3.45;;;;;;;4.87;100.00;99280.94;5077178;28;20517;-64
2023/01/12 07:47:54;;;;;;;5.15;3.30;;;;;;;4.89;100.00;99283.47;5086052;28;20065;-64
2023/01/12 07:50:39;;;;;;;4.20;2.38;;;;;;;4.95;100.00;99285.84;5098362;28;20053;-66
2023/01/12 07:53:25;;;;;;;6.18;3.08;;;;;;;5.36;100.00;99292.97;5083709;28;20051;-64
2023/01/12 07:56:12;;;;;;;7.22;2.75;;;;;;;5.63;100.00;99290.19;5082897;28;20035;-64
2023/01/12 07:58:56;;;;;;;6.10;2.83;;;;;;;5.77;100.00;99292.25;5105565;28;20112;-62
2023/01/12 08:01:41;;;;;;;6.22;2.70;;;;;;;5.88;100.00;99286.63;5067630;28;20483;-64
2023/01/12 08:04:26;;;;;;;7.35;3.80;;;;;;;6.07;100.00;99283.28;5093258;28;20473;-64
2023/01/12 08:07:13;;;;;;;6.88;2.83;;;;;;;6.09;100.00;99278.88;5090763;28;20047;-64
2023/01/12 08:09:58;;;;;;;6.00;2.10;;;;;;;5.89;100.00;99277.06;5095547;28;20067;-63
2023/01/12 08:12:43;;;;;;;6.65;2.97;;;;;;;6.10;100.00;99269.31;5101698;28;20070;-64
2023/01/12 08:15:34;;;;;;;4.25;1.90;;;;;;;6.45;98.38;99282.56;5085920;28;20431;-65
2023/01/12 08:18:26;;;;;;;4.80;1.90;;;;;;;7.18;94.96;99281.09;5085277;28;20051;-65
2023/01/12 08:21:16;;;;;;;5.80;1.88;;;;;;;8.25;91.75;99287.34;5090394;28;20036;-64
2023/01/12 08:24:04;;;;;;;3.85;1.70;;;;;;;9.01;86.39;99281.75;5088308;28;20071;-63
2023/01/12 08:26:52;;;;;;;4.95;1.98;;;;;;;9.74;82.48;99269.91;5106405;28;20110;-60
2023/01/12 08:29:42;;;;;;;3.33;1.30;;;;;;;9.91;79.33;99276.78;5076480;28;20135;-63
2023/01/12 08:32:28;;;;;;;4.00;1.23;;;;;;;10.35;76.23;99261.16;5082245;28;20046;-62
2023/01/12 08:35:16;;;;;;;2.70;1.08;;;;;;;10.67;72.23;99266.28;5092775;28;20097;-63
2023/01/12 08:38:01;;;;;;;2.95;1.02;;;;;;;11.10;72.15;99269.78;5069722;28;20078;-64
2023/01/12 08:44:01;;;;;;;3.00;1.05;;;;;;;12.30;66.62;99282.28;5091234;28;20039;-63
2023/01/12 08:46:47;;;;;;;3.28;1.30;;;;;;;14.23;77.23;99277.50;5095494;28;20109;-60
2023/01/12 08:49:32;;;;;;;5.22;1.40;;;;;;;13.77;68.33;99272.09;5111452;28;20573;-63
2023/01/12 08:52:17;;;;;;;2.78;1.13;;;;;;;14.62;54.66;99293.84;5091170;28;20479;-52
2023/01/12 08:55:03;;;;;;;2.92;1.25;;;;;;;12.60;60.81;99288.19;5102642;28;20134;-47
2023/01/12 08:57:48;;;;;;;4.63;1.83;;;;;;;13.28;67.21;99285.22;5104786;28;20048;-56
2023/01/12 09:00:32;;;;;;;5.45;1.38;;;;;;;13.51;59.59;99280.94;5090902;28;20052;-53
2023/01/12 09:03:17;;;;;;;5.32;1.45;;;;;;;14.59;59.29;99285.34;5090636;28;20044;-60
2023/01/12 09:06:14;;;;;;;2.65;1.30;;;;;;;13.85;59.46;99276.78;5094497;28;20126;-53
2023/01/12 09:09:01;;;;;;;4.25;1.25;;;;;;;15.59;59.41;99273.13;5090248;28;20048;-58
2023/01/12 09:11:48;;;;;;;4.18;1.13;;;;;;;15.38;53.21;99267.78;5095855;28;20043;-69
2023/01/12 09:14:37;;;;;;;4.32;1.08;;;;;;;14.45;61.01;99276.72;5099366;28;20051;-67
2023/01/12 09:17:24;;;;;;;3.77;0.97;;;;;;;15.93;56.40;99272.16;5087574;28;20100;-72
2023/01/12 09:20:10;;;;;;;3.17;0.80;;;;;;;16.63;49.23;99273.41;5088135;28;20090;-68
2023/01/12 09:22:55;;;;;;;2.90;0.85;;;;;;;16.42;54.22;99271.66;5099492;28;20054;-65
2023/01/12 09:25:40;;;;;;;2.78;0.70;;;;;;;17.57;53.14;99268.00;5104508;28;20032;-69
2023/01/12 09:28:25;;;;;;;2.15;0.73;;;;;;;17.22;50.63;99260.44;5095501;28;20107;-66
2023/01/12 09:31:18;;;;;;;2.95;0.63;;;;;;;15.13;53.90;99259.22;5102805;28;20043;-66
2023/01/12 09:34:02;;;;;;;1.25;0.30;;;;;;;15.43;55.24;99255.06;5074913;28;20078;-66
2023/01/12 09:36:51;;;;;;;2.67;0.90;;;;;;;15.33;53.11;99252.34;5094072;28;20052;-64
2023/01/12 09:39:35;;;;;;;2.30;0.73;;;;;;;14.98;53.39;99253.38;5095809;28;20048;-67
2023/01/12 09:48:39;;;;;;;3.03;0.73;;;;;;;12.09;58.32;99250.41;5059066;28;20048;-69
2023/01/12 09:51:30;;;;;;;1.20;0.40;;;;;;;12.83;56.89;99251.56;5108635;28;20363;-67
2023/01/12 09:54:15;;;;;;;1.83;0.90;;;;;;;12.14;58.81;99248.34;5103447;28;20119;-69
2023/01/12 09:57:24;;;;;;;2.08;0.40;;;;;;;12.90;58.43;99258.91;5089765;28;20055;-67
2023/01/12 10:00:14;;;;;;;2.90;0.57;;;;;;;12.10;59.41;99249.47;5093877;28;20059;-69
2023/01/12 10:03:29;;;;;;;2.20;0.57;;;;;;;13.26;58.00;99256.41;5094154;28;20063;-71
2023/01/12 10:06:17;;;;;;;2.35;0.63;;;;;;;12.27;58.24;99254.41;5025205;28;20520;-69
2023/01/12 10:09:05;;;;;;;1.60;0.50;;;;;;;12.63;58.63;99254.63;5030462;28;20435;-69
2023/01/12 10:11:59;;;;;;;2.28;0.60;;;;;;;13.12;57.51;99246.03;5021791;28;20159;-68
2023/01/12 10:15:23;;;;;;;2.15;0.50;;;;;;;12.02;59.54;99236.81;5029427;28;20048;-68
2023/01/12 10:18:22;;;;;;;;;;;;;;;11.98;59.19;99233.56;5029556;28;20499;-67
2023/01/12 10:21:10;;;;;;;2.75;0.70;;;;;;;12.61;60.04;99232.88;5026295;28;19928;-66
2023/01/12 10:23:55;;;;;;;3.00;0.77;;;;;;;12.34;59.93;99225.94;5030967;28;20128;-66
2023/01/12 10:26:44;;;;;;;2.40;0.68;;;;;;;12.56;59.76;99232.34;5030891;28;20044;-67
2023/01/12 10:29:31;;;;;;;2.65;0.82;;;;;;;11.93;60.88;99225.19;5011265;28;20052;-67
2023/01/12 10:32:16;;;;;;;2.22;0.50;;;;;;;12.42;59.60;99217.56;5009894;28;20462;-66
2023/01/12 10:35:01;;;;;;;5.55;1.50;;;;;;;13.22;58.41;99212.00;5023814;28;20046;-68
2023/01/12 10:37:50;;;;;;;7.00;2.13;;;;;;;12.63;58.02;99196.78;5023959;28;20046;-67
2023/01/12 10:40:34;;;;;;;3.60;1.42;;;;;;;12.62;59.07;99212.69;5016793;28;20037;-65
2023/01/12 10:43:20;;;;;;;2.00;0.70;;;;;;;12.51;61.05;99197.66;5070056;28;20177;-65
2023/01/12 10:46:13;;;;;;;3.05;0.75;;;;;;;12.47;59.20;99201.47;5113331;28;20062;-66
2023/01/12 10:49:21;;;;;;;2.30;0.73;;;;;;;12.98;58.34;99197.88;5098004;28;20044;-66
2023/01/12 10:52:30;;;;;;;1.50;0.50;;;;;;;12.63;57.46;99204.69;5094508;28;20055;-66
2023/01/12 10:55:22;;;;;;;2.10;0.52;;;;;;;13.00;57.98;99208.28;5109303;28;20040;-66
2023/01/12 10:58:24;;;;;;;1.35;0.40;;;;;;;12.59;58.86;99221.63;5096953;28;20119;-66
2023/01/12 11:01:12;;;;;;;5.30;0.93;;;;;;;11.52;61.49;99213.84;5095386;28;20390;-67
2023/01/12 11:04:03;;;;;;;1.92;0.30;;;;;;;11.27;60.93;99197.06;5099355;28;20052;-66
2023/01/12 11:07:09;;;;;;;2.72;0.60;;;;;;;10.79;62.46;99206.16;5099520;28;20052;-65
2023/01/12 11:09:58;;;;;;;2.75;0.40;;;;;;;11.04;63.52;99188.91;5104507;28;20066;-65
2023/01/12 11:13:02;;;;;;;2.28;0.50;;;;;;;11.21;62.64;99188.66;5105918;28;20052;-65
2023/01/12 11:16:20;;;;;;;3.15;0.68;;;;;;;12.28;59.55;99179.09;5100076;28;20046;-66
2023/01/12 11:19:16;;;;;;;2.90;0.95;;;;;;;13.38;56.60;99178.34;5092516;28;20490;-65
2023/01/12 11:22:12;;;;;;;2.85;0.45;;;;;;;13.36;55.29;99166.25;5084220;28;20036;-66
2023/01/12 11:25:04;;;;;;;1.33;0.38;;;;;;;13.05;55.28;99154.41;5102195;28;20055;-66
2023/01/12 11:28:05;;;;;;;1.80;0.52;;;;;;;13.59;53.21;99154.06;5084067;28;20069;-67
2023/01/12 11:30:54;;;;;;;2.78;0.93;;;;;;;12.59;55.62;99147.19;5092264;28;20044;-66
2023/01/12 11:33:51;;;;;;;2.67;0.68;;;;;;;13.21;54.95;99155.91;5094030;28;20096;-66
2023/01/12 11:36:46;;;;;;;2.95;0.68;;;;;;;13.94;52.05;99144.41;5106915;28;20078;-66
2023/01/12 11:39:34;;;;;;;5.47;0.73;;;;;;;13.26;53.02;99139.78;5102670;28;20096;-67
2023/01/12 11:45:57;;;;;;;2.92;0.70;;;;;;;12.72;56.58;99139.28;5091593;28;20044;-67
2023/01/12 11:48:57;;;;;;;1.73;0.47;;;;;;;13.72;52.62;99132.91;5079372;28;20089;-67
2023/01/12 11:51:43;;;;;;;1.85;0.50;;;;;;;14.41;51.58;99141.69;5091832;28;20036;-66
2023/01/12 11:54:29;;;;;;;2.22;0.50;;;;;;;13.82;52.24;99132.19;5106664;28;20080;-66
2023/01/12 11:57:40;;;;;;;4.93;0.60;;;;;;;14.36;52.29;99135.94;5096309;28;20572;-67
2023/01/12 12:00:30;;;;;;;2.72;0.40;;;;;;;15.69;47.82;99127.97;5088340;28;20109;-66
2023/01/12 12:03:30;;;;;;;1.95;0.75;;;;;;;15.23;49.41;99127.34;5091918;28;20505;-67
2023/01/12 12:06:42;;;;;;;2.20;0.75;;;;;;;15.34;49.73;99129.94;5092026;28;20039;-66
2023/01/12 12:10:01;;;;;;;3.23;0.53;;;;;;;15.34;49.69;99135.22;5095524;28;20040;-67
2023/01/12 12:12:57;;;;;;;2.33;0.60;;;;;;;14.24;50.54;99129.00;5095774;28;20055;-67
2023/01/12 12:16:12;;;;;;;3.13;0.68;;;;;;;15.39;50.65;99117.22;5090941;28;20039;-65
2023/01/12 12:19:19;;;;;;;3.47;0.40;;;;;;;16.05;47.37;99114.44;5079188;28;20044;-68
2023/01/12 12:22:17;;;;;;;4.88;0.82;;;;;;;16.98;46.08;99118.72;5090836;28;20039;-68
2023/01/12 12:25:24;;;;;;;2.47;0.50;;;;;;;16.78;46.81;99106.44;5091332;28;20044;-68
2023/01/12 12:28:44;;;;;;;4.53;0.73;;;;;;;18.46;43.23;99111.44;5090949;28;20040;-67
2023/01/12 12:32:07;;;;;;;3.20;0.40;;;;;;;19.17;43.16;99098.41;5089587;28;20122;-67
2023/01/12 12:34:51;;;;;;;3.70;0.50;;;;;;;18.42;40.80;99094.16;5090982;28;20176;-67
2023/01/12 12:38:07;;;;;;;3.10;1.08;;;;;;;19.13;42.19;99094.38;5096539;28;20486;-66
2023/01/12 12:45:16;;;;;;;2.17;0.40;;;;;;;18.55;42.69;99088.50;5082242;28;20051;-66
2023/01/12 12:48:05;;;;;;;2.45;0.52;;;;;;;18.73;41.42;99080.56;5092693;28;20040;-65
2023/01/12 12:51:03;;;;;;;2.88;0.73;;;;;;;19.29;41.05;99088.38;5089186;28;20043;-67
2023/01/12 12:53:49;;;;;;;1.95;0.50;;;;;;;19.15;41.06;99078.28;5101525;28;20489;-66
2023/01/12 12:56:35;;;;;;;4.97;0.82;;;;;;;18.90;42.39;99081.53;5093810;28;20160;-67
2023/01/12 12:59:32;;;;;;;1.95;0.52;;;;;;;19.30;40.27;99081.25;5103266;28;20180;-65
2023/01/12 13:02:38;;;;;;;3.42;0.85;;;;;;;18.88;39.01;99074.72;5076147;28;20077;-66
2023/01/12 13:05:39;;;;;;;3.70;0.40;;;;;;;19.17;40.78;99077.16;5092194;28;20111;-66
2023/01/12 13:08:25;;;;;;;;;;;;;;;18.97;40.39;99071.16;5095640;28;20479;-66
2023/01/12 13:11:17;;;;;;;2.60;0.60;;;;;;;18.74;41.42;99068.94;5101210;28;20528;-67
2023/01/12 13:14:17;;;;;;;5.57;0.80;;;;;;;18.30;39.24;99069.66;5065564;28;20048;-67
2023/01/12 13:17:04;;;;;;;1.10;0.30;;;;;;;18.15;42.61;99072.78;5055498;28;20044;-67
2023/01/12 13:20:10;;;;;;;2.70;0.70;;;;;;;17.77;41.68;99064.00;5102127;28;20047;-68
2023/01/12 13:22:58;;;;;;;3.00;0.80;;;;;;;17.77;42.77;99064.84;5095023;28;20040;-67
2023/01/12 13:25:55;;;;;;;1.85;0.60;;;;;;;18.58;43.27;99059.00;5048663;28;20142;-67
2023/01/12 13:28:42;;;;;;;11.63;2.28;;;;;;;18.34;40.68;99066.53;5069449;28;20059;-66
2023/01/12 13:31:31;;;;;;;4.22;0.85;;;;;;;18.60;40.05;99057.06;5070888;28;20051;-69
2023/01/12 13:34:35;;;;;;;3.67;0.80;;;;;;;18.53;41.02;99063.94;5074300;28;20118;-66
2023/01/12 13:37:36;;;;;;;4.28;0.40;;;;;;;17.98;41.67;99063.78;5090218;28;20052;-67
2023/01/12 13:40:27;;;;;;;3.63;0.80;;;;;;;18.19;41.85;99070.69;5093474;28;20038;-67
2023/01/12 13:43:31;;;;;;;1.83;0.60;;;;;;;17.42;44.58;99061.88;5072889;28;20055;-67
2023/01/12 13:46:20;;;;;;;4.57;0.65;;;;;;;17.10;44.43;99069.13;5105857;28;20147;-67
2023/01/12 13:49:21;;;;;;;3.40;0.50;;;;;;;14.80;46.81;99077.19;5085394;28;20058;-67
2023/01/12 13:52:20;;;;;;;1.73;0.47;;;;;;;15.00;50.19;99079.97;5102618;28;20099;-63
2023/01/12 13:55:29;;;;;;;1.67;0.68;;;;;;;14.48;50.33;99068.22;5102923;28;20063;-66
2023/01/12 13:58:17;;;;;;;4.57;0.50;;;;;;;14.49;52.80;99066.44;5093665;28;20081;-64
2023/01/12 14:01:03;;;;;;;3.10;0.82;;;;;;;14.97;55.27;99069.66;5087574;28;20035;-66